sensor_id;sensor_type;location;lat;lon;timestamp;P1;durP1;ratioP1;P2;durP2;ratioP2
29238;SDS011;16267;48.194;11.546;2024-02-16T00:02:17;5.68;;;3.15;;
29238;SDS011;16267;48.194;11.546;2024-02-16T00:04:43;5.55;;;2.90;;
29238;SDS011;16267;48.194;11.546;2024-02-16T00:07:09;7.80;;;3.63;;
29238;SDS011;16267;48.194;11.546;2024-02-16T00:09:35;10.70;;;3.53;;
29238;SDS011;16267;48.194;11.546;2024-02-16T00:12:01;8.40;;;3.80;;
29238;SDS011;16267;48.194;11.546;2024-02-16T00:14:27;4.18;;;2.50;;
29238;SDS011;16267;48.194;11.546;2024-02-16T00:16:53;5.63;;;2.85;;
29238;SDS011;16267;48.194;11.546;2024-02-16T00:19:18;5.00;;;2.53;;
29238;SDS011;16267;48.194;11.546;2024-02-16T00:21:44;5.07;;;2.72;;
29238;SDS011;16267;48.194;11.546;2024-02-16T00:24:10;4.15;;;2.67;;
29238;SDS011;16267;48.194;11.546;2024-02-16T00:26:36;5.43;;;2.67;;
29238;SDS011;16267;48.194;11.546;2024-02-16T00:29:04;5.68;;;2.55;;
29238;SDS011;16267;48.194;11.546;2024-02-16T00:31:30;6.68;;;3.20;;
29238;SDS011;16267;48.194;11.546;2024-02-16T00:33:56;10.02;;;2.90;;
29238;SDS011;16267;48.194;11.546;2024-02-16T00:36:22;6.65;;;2.50;;
29238;SDS011;16267;48.194;11.546;2024-02-16T00:38:47;5.38;;;2.55;;
29238;SDS011;16267;48.194;11.546;2024-02-16T00:41:17;5.22;;;2.97;;
29238;SDS011;16267;48.194;11.546;2024-02-16T00:43:50;4.65;;;2.60;;
29238;SDS011;16267;48.194;11.546;2024-02-16T00:46:17;3.97;;;2.47;;
29238;SDS011;16267;48.194;11.546;2024-02-16T00:48:43;5.50;;;2.78;;
29238;SDS011;16267;48.194;11.546;2024-02-16T00:51:09;5.85;;;2.67;;
29238;SDS011;16267;48.194;11.546;2024-02-16T00:53:34;12.73;;;2.75;;
29238;SDS011;16267;48.194;11.546;2024-02-16T00:56:00;4.28;;;2.25;;
29238;SDS011;16267;48.194;11.546;2024-02-16T00:58:26;4.03;;;2.42;;
29238;SDS011;16267;48.194;11.546;2024-02-16T01:00:52;6.50;;;2.78;;
29238;SDS011;16267;48.194;11.546;2024-02-16T01:03:18;4.05;;;2.53;;
29238;SDS011;16267;48.194;11.546;2024-02-16T01:05:43;6.00;;;3.22;;
29238;SDS011;16267;48.194;11.546;2024-02-16T01:08:09;3.50;;;2.40;;
29238;SDS011;16267;48.194;11.546;2024-02-16T01:10:35;7.90;;;2.70;;
29238;SDS011;16267;48.194;11.546;2024-02-16T01:13:01;4.75;;;2.95;;
29238;SDS011;16267;48.194;11.546;2024-02-16T01:15:28;3.42;;;2.50;;
29238;SDS011;16267;48.194;11.546;2024-02-16T01:17:54;5.13;;;2.42;;
29238;SDS011;16267;48.194;11.546;2024-02-16T01:20:19;9.38;;;2.67;;
29238;SDS011;16267;48.194;11.546;2024-02-16T01:22:45;5.80;;;2.47;;
29238;SDS011;16267;48.194;11.546;2024-02-16T01:25:11;6.53;;;3.10;;
29238;SDS011;16267;48.194;11.546;2024-02-16T01:27:37;6.45;;;2.35;;
29238;SDS011;16267;48.194;11.546;2024-02-16T01:30:03;5.10;;;2.67;;
29238;SDS011;16267;48.194;11.546;2024-02-16T01:32:29;5.25;;;2.78;;
29238;SDS011;16267;48.194;11.546;2024-02-16T01:34:55;4.38;;;2.45;;
29238;SDS011;16267;48.194;11.546;2024-02-16T01:37:20;5.72;;;2.75;;
29238;SDS011;16267;48.194;11.546;2024-02-16T01:39:46;6.60;;;2.45;;
29238;SDS011;16267;48.194;11.546;2024-02-16T01:42:12;5.72;;;2.50;;
29238;SDS011;16267;48.194;11.546;2024-02-16T01:44:38;5.22;;;2.70;;
29238;SDS011;16267;48.194;11.546;2024-02-16T01:47:04;4.75;;;2.70;;
29238;SDS011;16267;48.194;11.546;2024-02-16T01:49:30;5.07;;;2.95;;
29238;SDS011;16267;48.194;11.546;2024-02-16T01:51:56;4.05;;;2.38;;
29238;SDS011;16267;48.194;11.546;2024-02-16T01:54:22;3.78;;;2.08;;
29238;SDS011;16267;48.194;11.546;2024-02-16T01:56:48;4.07;;;2.00;;
29238;SDS011;16267;48.194;11.546;2024-02-16T01:59:16;3.92;;;2.50;;
29238;SDS011;16267;48.194;11.546;2024-02-16T02:01:42;5.25;;;2.95;;
29238;SDS011;16267;48.194;11.546;2024-02-16T02:04:07;5.70;;;3.00;;
29238;SDS011;16267;48.194;11.546;2024-02-16T02:06:33;8.93;;;3.47;;
29238;SDS011;16267;48.194;11.546;2024-02-16T02:09:00;5.18;;;2.55;;
29238;SDS011;16267;48.194;11.546;2024-02-16T02:11:25;3.13;;;2.17;;
29238;SDS011;16267;48.194;11.546;2024-02-16T02:13:52;4.15;;;2.92;;
29238;SDS011;16267;48.194;11.546;2024-02-16T02:16:18;6.93;;;3.45;;
29238;SDS011;16267;48.194;11.546;2024-02-16T02:18:46;4.65;;;2.55;;
29238;SDS011;16267;48.194;11.546;2024-02-16T02:21:11;4.45;;;2.47;;
29238;SDS011;16267;48.194;11.546;2024-02-16T02:23:39;6.10;;;2.72;;
29238;SDS011;16267;48.194;11.546;2024-02-16T02:26:06;4.70;;;2.80;;
29238;SDS011;16267;48.194;11.546;2024-02-16T02:28:32;8.70;;;2.40;;
29238;SDS011;16267;48.194;11.546;2024-02-16T02:30:59;4.10;;;2.60;;
29238;SDS011;16267;48.194;11.546;2024-02-16T02:33:25;8.05;;;3.15;;
29238;SDS011;16267;48.194;11.546;2024-02-16T02:35:51;5.38;;;2.55;;
29238;SDS011;16267;48.194;11.546;2024-02-16T02:38:16;5.75;;;3.05;;
29238;SDS011;16267;48.194;11.546;2024-02-16T02:40:42;8.93;;;2.55;;
29238;SDS011;16267;48.194;11.546;2024-02-16T02:43:08;6.93;;;2.85;;
29238;SDS011;16267;48.194;11.546;2024-02-16T02:45:34;4.63;;;2.80;;
29238;SDS011;16267;48.194;11.546;2024-02-16T02:47:59;5.35;;;2.90;;
29238;SDS011;16267;48.194;11.546;2024-02-16T02:50:25;7.50;;;2.85;;
29238;SDS011;16267;48.194;11.546;2024-02-16T02:52:51;7.40;;;2.70;;
29238;SDS011;16267;48.194;11.546;2024-02-16T02:55:17;4.72;;;2.63;;
29238;SDS011;16267;48.194;11.546;2024-02-16T02:57:43;5.97;;;3.00;;
29238;SDS011;16267;48.194;11.546;2024-02-16T03:00:09;6.10;;;2.67;;
29238;SDS011;16267;48.194;11.546;2024-02-16T03:02:38;3.97;;;2.22;;
29238;SDS011;16267;48.194;11.546;2024-02-16T03:05:08;6.72;;;3.17;;
29238;SDS011;16267;48.194;11.546;2024-02-16T03:07:34;5.50;;;2.95;;
29238;SDS011;16267;48.194;11.546;2024-02-16T03:10:00;13.20;;;2.70;;
29238;SDS011;16267;48.194;11.546;2024-02-16T03:12:28;5.65;;;2.78;;
29238;SDS011;16267;48.194;11.546;2024-02-16T03:14:54;4.10;;;2.47;;
29238;SDS011;16267;48.194;11.546;2024-02-16T03:17:20;6.55;;;2.83;;
29238;SDS011;16267;48.194;11.546;2024-02-16T03:19:45;8.18;;;3.10;;
29238;SDS011;16267;48.194;11.546;2024-02-16T03:22:12;7.68;;;3.30;;
29238;SDS011;16267;48.194;11.546;2024-02-16T03:24:37;3.92;;;2.95;;
29238;SDS011;16267;48.194;11.546;2024-02-16T03:27:03;6.90;;;2.45;;
29238;SDS011;16267;48.194;11.546;2024-02-16T03:29:30;10.40;;;3.17;;
29238;SDS011;16267;48.194;11.546;2024-02-16T03:31:56;4.53;;;3.00;;
29238;SDS011;16267;48.194;11.546;2024-02-16T03:34:21;6.75;;;3.75;;
29238;SDS011;16267;48.194;11.546;2024-02-16T03:36:47;4.50;;;2.70;;
29238;SDS011;16267;48.194;11.546;2024-02-16T03:39:13;6.78;;;3.47;;
29238;SDS011;16267;48.194;11.546;2024-02-16T03:41:44;8.82;;;2.53;;
29238;SDS011;16267;48.194;11.546;2024-02-16T03:44:13;7.03;;;3.17;;
29238;SDS011;16267;48.194;11.546;2024-02-16T03:46:41;4.60;;;2.97;;
29238;SDS011;16267;48.194;11.546;2024-02-16T03:49:08;6.93;;;3.28;;
29238;SDS011;16267;48.194;11.546;2024-02-16T03:51:35;4.45;;;2.72;;
29238;SDS011;16267;48.194;11.546;2024-02-16T03:54:02;6.68;;;3.38;;
29238;SDS011;16267;48.194;11.546;2024-02-16T03:56:29;9.13;;;3.95;;
29238;SDS011;16267;48.194;11.546;2024-02-16T03:58:55;3.65;;;2.42;;
29238;SDS011;16267;48.194;11.546;2024-02-16T04:01:21;12.93;;;3.42;;
29238;SDS011;16267;48.194;11.546;2024-02-16T04:03:47;8.90;;;2.95;;
29238;SDS011;16267;48.194;11.546;2024-02-16T04:06:12;6.03;;;3.50;;
29238;SDS011;16267;48.194;11.546;2024-02-16T04:08:38;5.43;;;2.95;;
29238;SDS011;16267;48.194;11.546;2024-02-16T04:11:04;5.13;;;2.70;;
29238;SDS011;16267;48.194;11.546;2024-02-16T04:13:31;5.95;;;3.00;;
29238;SDS011;16267;48.194;11.546;2024-02-16T04:15:57;6.80;;;3.03;;
29238;SDS011;16267;48.194;11.546;2024-02-16T04:18:23;7.18;;;2.95;;
29238;SDS011;16267;48.194;11.546;2024-02-16T04:20:49;8.23;;;2.88;;
29238;SDS011;16267;48.194;11.546;2024-02-16T04:23:15;6.10;;;2.88;;
29238;SDS011;16267;48.194;11.546;2024-02-16T04:25:40;10.32;;;2.85;;
29238;SDS011;16267;48.194;11.546;2024-02-16T04:28:06;4.95;;;3.08;;
29238;SDS011;16267;48.194;11.546;2024-02-16T04:30:32;6.03;;;3.30;;
29238;SDS011;16267;48.194;11.546;2024-02-16T04:32:57;4.88;;;2.65;;
29238;SDS011;16267;48.194;11.546;2024-02-16T04:35:23;5.80;;;3.05;;
29238;SDS011;16267;48.194;11.546;2024-02-16T04:37:49;7.57;;;3.05;;
29238;SDS011;16267;48.194;11.546;2024-02-16T04:40:14;5.35;;;2.45;;
29238;SDS011;16267;48.194;11.546;2024-02-16T04:42:40;4.88;;;2.65;;
29238;SDS011;16267;48.194;11.546;2024-02-16T04:45:07;7.50;;;3.10;;
29238;SDS011;16267;48.194;11.546;2024-02-16T04:47:36;6.05;;;3.83;;
29238;SDS011;16267;48.194;11.546;2024-02-16T04:50:02;8.38;;;2.95;;
29238;SDS011;16267;48.194;11.546;2024-02-16T04:52:28;8.32;;;2.85;;
29238;SDS011;16267;48.194;11.546;2024-02-16T04:54:54;5.85;;;3.10;;
29238;SDS011;16267;48.194;11.546;2024-02-16T04:57:20;6.55;;;2.95;;
29238;SDS011;16267;48.194;11.546;2024-02-16T04:59:45;4.93;;;2.63;;
29238;SDS011;16267;48.194;11.546;2024-02-16T05:02:11;7.88;;;3.20;;
29238;SDS011;16267;48.194;11.546;2024-02-16T05:04:37;5.82;;;3.08;;
29238;SDS011;16267;48.194;11.546;2024-02-16T05:07:04;9.38;;;2.58;;
29238;SDS011;16267;48.194;11.546;2024-02-16T05:09:32;6.88;;;3.00;;
29238;SDS011;16267;48.194;11.546;2024-02-16T05:11:57;10.48;;;2.85;;
29238;SDS011;16267;48.194;11.546;2024-02-16T05:14:23;4.78;;;2.55;;
29238;SDS011;16267;48.194;11.546;2024-02-16T05:16:49;6.60;;;3.00;;
29238;SDS011;16267;48.194;11.546;2024-02-16T05:19:16;5.50;;;2.88;;
29238;SDS011;16267;48.194;11.546;2024-02-16T05:21:41;6.63;;;2.35;;
29238;SDS011;16267;48.194;11.546;2024-02-16T05:24:07;5.82;;;2.92;;
29238;SDS011;16267;48.194;11.546;2024-02-16T05:26:33;4.63;;;2.72;;
29238;SDS011;16267;48.194;11.546;2024-02-16T05:28:59;5.40;;;2.60;;
29238;SDS011;16267;48.194;11.546;2024-02-16T05:31:25;4.78;;;2.60;;
29238;SDS011;16267;48.194;11.546;2024-02-16T05:33:50;4.68;;;2.78;;
29238;SDS011;16267;48.194;11.546;2024-02-16T05:36:20;9.70;;;2.78;;
29238;SDS011;16267;48.194;11.546;2024-02-16T05:38:50;8.38;;;2.50;;
29238;SDS011;16267;48.194;11.546;2024-02-16T05:41:16;4.75;;;2.97;;
29238;SDS011;16267;48.194;11.546;2024-02-16T05:43:45;3.08;;;2.10;;
29238;SDS011;16267;48.194;11.546;2024-02-16T05:46:15;4.60;;;2.28;;
29238;SDS011;16267;48.194;11.546;2024-02-16T05:48:42;7.30;;;2.47;;
29238;SDS011;16267;48.194;11.546;2024-02-16T05:51:11;5.07;;;2.78;;
29238;SDS011;16267;48.194;11.546;2024-02-16T05:53:38;9.60;;;3.10;;
29238;SDS011;16267;48.194;11.546;2024-02-16T05:56:04;5.50;;;2.72;;
29238;SDS011;16267;48.194;11.546;2024-02-16T05:58:30;9.52;;;3.13;;
29238;SDS011;16267;48.194;11.546;2024-02-16T06:00:56;5.15;;;2.85;;
29238;SDS011;16267;48.194;11.546;2024-02-16T06:03:22;7.65;;;3.03;;
29238;SDS011;16267;48.194;11.546;2024-02-16T06:05:48;5.35;;;2.78;;
29238;SDS011;16267;48.194;11.546;2024-02-16T06:08:14;4.75;;;2.55;;
29238;SDS011;16267;48.194;11.546;2024-02-16T06:10:44;7.53;;;3.30;;
29238;SDS011;16267;48.194;11.546;2024-02-16T06:13:16;5.22;;;2.38;;
29238;SDS011;16267;48.194;11.546;2024-02-16T06:15:43;6.63;;;2.70;;
29238;SDS011;16267;48.194;11.546;2024-02-16T06:18:08;4.90;;;2.65;;
29238;SDS011;16267;48.194;11.546;2024-02-16T06:20:34;12.50;;;3.38;;
29238;SDS011;16267;48.194;11.546;2024-02-16T06:23:00;5.47;;;2.38;;
29238;SDS011;16267;48.194;11.546;2024-02-16T06:25:26;3.95;;;2.40;;
29238;SDS011;16267;48.194;11.546;2024-02-16T06:27:52;6.70;;;2.72;;
29238;SDS011;16267;48.194;11.546;2024-02-16T06:30:18;5.28;;;2.72;;
29238;SDS011;16267;48.194;11.546;2024-02-16T06:32:44;6.80;;;2.92;;
29238;SDS011;16267;48.194;11.546;2024-02-16T06:35:09;4.55;;;2.78;;
29238;SDS011;16267;48.194;11.546;2024-02-16T06:37:36;7.30;;;3.08;;
29238;SDS011;16267;48.194;11.546;2024-02-16T06:40:05;5.45;;;2.45;;
29238;SDS011;16267;48.194;11.546;2024-02-16T06:42:35;7.88;;;3.47;;
29238;SDS011;16267;48.194;11.546;2024-02-16T06:45:01;6.00;;;2.88;;
29238;SDS011;16267;48.194;11.546;2024-02-16T06:47:28;8.20;;;3.17;;
29238;SDS011;16267;48.194;11.546;2024-02-16T06:49:54;7.22;;;3.60;;
29238;SDS011;16267;48.194;11.546;2024-02-16T06:52:20;10.32;;;2.75;;
29238;SDS011;16267;48.194;11.546;2024-02-16T06:54:45;4.63;;;2.40;;
29238;SDS011;16267;48.194;11.546;2024-02-16T06:57:11;9.85;;;2.80;;
29238;SDS011;16267;48.194;11.546;2024-02-16T06:59:37;6.40;;;2.72;;
29238;SDS011;16267;48.194;11.546;2024-02-16T07:02:03;6.88;;;3.15;;
29238;SDS011;16267;48.194;11.546;2024-02-16T07:04:28;5.35;;;2.70;;
29238;SDS011;16267;48.194;11.546;2024-02-16T07:06:54;2.95;;;1.83;;
29238;SDS011;16267;48.194;11.546;2024-02-16T07:09:20;3.60;;;2.10;;
29238;SDS011;16267;48.194;11.546;2024-02-16T07:11:47;4.13;;;2.25;;
29238;SDS011;16267;48.194;11.546;2024-02-16T07:14:15;4.13;;;2.47;;
29238;SDS011;16267;48.194;11.546;2024-02-16T07:16:41;5.10;;;2.13;;
29238;SDS011;16267;48.194;11.546;2024-02-16T07:19:07;10.02;;;2.40;;
29238;SDS011;16267;48.194;11.546;2024-02-16T07:21:34;12.70;;;2.88;;
29238;SDS011;16267;48.194;11.546;2024-02-16T07:24:00;6.50;;;2.45;;
29238;SDS011;16267;48.194;11.546;2024-02-16T07:26:26;5.95;;;2.25;;
29238;SDS011;16267;48.194;11.546;2024-02-16T07:28:52;6.32;;;2.42;;
29238;SDS011;16267;48.194;11.546;2024-02-16T07:31:20;4.53;;;2.28;;
29238;SDS011;16267;48.194;11.546;2024-02-16T07:33:46;3.67;;;1.95;;
29238;SDS011;16267;48.194;11.546;2024-02-16T07:36:12;4.07;;;1.95;;
29238;SDS011;16267;48.194;11.546;2024-02-16T07:38:39;4.18;;;1.80;;
29238;SDS011;16267;48.194;11.546;2024-02-16T07:41:05;5.05;;;2.30;;
29238;SDS011;16267;48.194;11.546;2024-02-16T07:43:32;15.65;;;2.35;;
29238;SDS011;16267;48.194;11.546;2024-02-16T07:46:00;3.65;;;2.08;;
29238;SDS011;16267;48.194;11.546;2024-02-16T07:48:26;6.30;;;2.10;;
29238;SDS011;16267;48.194;11.546;2024-02-16T07:50:59;4.45;;;2.03;;
29238;SDS011;16267;48.194;11.546;2024-02-16T07:53:27;6.63;;;2.08;;
29238;SDS011;16267;48.194;11.546;2024-02-16T07:55:59;5.95;;;2.55;;
29238;SDS011;16267;48.194;11.546;2024-02-16T07:58:26;4.38;;;2.35;;
29238;SDS011;16267;48.194;11.546;2024-02-16T08:00:51;3.70;;;1.83;;
29238;SDS011;16267;48.194;11.546;2024-02-16T08:03:19;5.18;;;2.20;;
29238;SDS011;16267;48.194;11.546;2024-02-16T08:05:45;3.60;;;1.73;;
29238;SDS011;16267;48.194;11.546;2024-02-16T08:08:11;5.07;;;2.10;;
29238;SDS011;16267;48.194;11.546;2024-02-16T08:10:36;10.90;;;2.22;;
29238;SDS011;16267;48.194;11.546;2024-02-16T08:13:03;6.22;;;1.92;;
29238;SDS011;16267;48.194;11.546;2024-02-16T08:15:32;3.80;;;2.05;;
29238;SDS011;16267;48.194;11.546;2024-02-16T08:17:58;6.28;;;2.65;;
29238;SDS011;16267;48.194;11.546;2024-02-16T08:20:23;4.65;;;1.90;;
29238;SDS011;16267;48.194;11.546;2024-02-16T08:22:49;4.78;;;2.60;;
29238;SDS011;16267;48.194;11.546;2024-02-16T08:25:21;5.45;;;2.25;;
29238;SDS011;16267;48.194;11.546;2024-02-16T08:27:50;5.22;;;2.10;;
29238;SDS011;16267;48.194;11.546;2024-02-16T08:30:16;7.82;;;2.95;;
29238;SDS011;16267;48.194;11.546;2024-02-16T08:32:42;8.55;;;2.08;;
29238;SDS011;16267;48.194;11.546;2024-02-16T08:35:08;6.10;;;1.80;;
29238;SDS011;16267;48.194;11.546;2024-02-16T08:37:34;6.57;;;2.50;;
29238;SDS011;16267;48.194;11.546;2024-02-16T08:40:02;5.03;;;1.77;;
29238;SDS011;16267;48.194;11.546;2024-02-16T08:42:39;2.70;;;1.85;;
29238;SDS011;16267;48.194;11.546;2024-02-16T08:48:24;10.82;;;1.80;;
29238;SDS011;16267;48.194;11.546;2024-02-16T08:50:50;3.53;;;1.48;;
29238;SDS011;16267;48.194;11.546;2024-02-16T08:53:21;6.15;;;1.83;;
29238;SDS011;16267;48.194;11.546;2024-02-16T08:55:53;3.30;;;1.88;;
29238;SDS011;16267;48.194;11.546;2024-02-16T08:58:21;4.50;;;2.15;;
29238;SDS011;16267;48.194;11.546;2024-02-16T09:01:10;9.15;;;1.73;;
29238;SDS011;16267;48.194;11.546;2024-02-16T09:04:03;4.50;;;1.65;;
29238;SDS011;16267;48.194;11.546;2024-02-16T09:06:39;5.35;;;1.35;;
29238;SDS011;16267;48.194;11.546;2024-02-16T09:09:41;3.38;;;1.67;;
29238;SDS011;16267;48.194;11.546;2024-02-16T09:16:22;6.63;;;1.48;;
29238;SDS011;16267;48.194;11.546;2024-02-16T09:19:14;2.70;;;1.27;;
29238;SDS011;16267;48.194;11.546;2024-02-16T09:21:48;2.47;;;1.30;;
29238;SDS011;16267;48.194;11.546;2024-02-16T09:24:49;4.28;;;1.20;;
29238;SDS011;16267;48.194;11.546;2024-02-16T09:27:25;2.78;;;0.93;;
29238;SDS011;16267;48.194;11.546;2024-02-16T09:29:59;3.47;;;1.07;;
29238;SDS011;16267;48.194;11.546;2024-02-16T09:35:42;6.82;;;1.13;;
29238;SDS011;16267;48.194;11.546;2024-02-16T09:38:30;11.38;;;1.10;;
29238;SDS011;16267;48.194;11.546;2024-02-16T09:41:05;2.63;;;1.00;;
29238;SDS011;16267;48.194;11.546;2024-02-16T09:43:59;1.92;;;0.95;;
29238;SDS011;16267;48.194;11.546;2024-02-16T09:46:39;3.78;;;1.35;;
29238;SDS011;16267;48.194;11.546;2024-02-16T09:49:56;3.63;;;0.85;;
29238;SDS011;16267;48.194;11.546;2024-02-16T09:52:51;2.90;;;0.90;;
29238;SDS011;16267;48.194;11.546;2024-02-16T09:55:29;1.02;;;0.60;;
29238;SDS011;16267;48.194;11.546;2024-02-16T09:58:10;3.35;;;1.10;;
29238;SDS011;16267;48.194;11.546;2024-02-16T10:00:53;2.70;;;1.08;;
29238;SDS011;16267;48.194;11.546;2024-02-16T10:03:35;5.38;;;1.15;;
29238;SDS011;16267;48.194;11.546;2024-02-16T10:06:07;1.58;;;1.02;;
29238;SDS011;16267;48.194;11.546;2024-02-16T10:08:48;8.27;;;0.68;;
29238;SDS011;16267;48.194;11.546;2024-02-16T10:11:26;2.03;;;1.02;;
29238;SDS011;16267;48.194;11.546;2024-02-16T10:14:12;1.42;;;0.85;;
29238;SDS011;16267;48.194;11.546;2024-02-16T10:16:44;1.40;;;0.75;;
29238;SDS011;16267;48.194;11.546;2024-02-16T10:19:35;8.80;;;1.25;;
29238;SDS011;16267;48.194;11.546;2024-02-16T10:22:16;3.03;;;0.85;;
29238;SDS011;16267;48.194;11.546;2024-02-16T10:24:53;8.00;;;0.60;;
29238;SDS011;16267;48.194;11.546;2024-02-16T10:30:30;3.53;;;0.77;;
29238;SDS011;16267;48.194;11.546;2024-02-16T10:33:02;6.22;;;0.60;;
29238;SDS011;16267;48.194;11.546;2024-02-16T10:35:46;3.90;;;1.13;;
29238;SDS011;16267;48.194;11.546;2024-02-16T10:38:17;1.10;;;0.50;;
29238;SDS011;16267;48.194;11.546;2024-02-16T10:40:52;3.65;;;0.82;;
29238;SDS011;16267;48.194;11.546;2024-02-16T10:44:01;1.45;;;0.63;;
29238;SDS011;16267;48.194;11.546;2024-02-16T10:46:31;2.50;;;0.80;;
29238;SDS011;16267;48.194;11.546;2024-02-16T10:49:25;0.65;;;0.38;;
29238;SDS011;16267;48.194;11.546;2024-02-16T10:52:57;2.13;;;0.90;;
29238;SDS011;16267;48.194;11.546;2024-02-16T11:00:34;2.25;;;1.00;;
29238;SDS011;16267;48.194;11.546;2024-02-16T11:04:18;1.42;;;0.85;;
29238;SDS011;16267;48.194;11.546;2024-02-16T11:07:16;1.00;;;0.68;;
29238;SDS011;16267;48.194;11.546;2024-02-16T11:10:02;1.63;;;0.75;;
29238;SDS011;16267;48.194;11.546;2024-02-16T11:13:12;2.40;;;0.80;;
29238;SDS011;16267;48.194;11.546;2024-02-16T11:15:57;1.90;;;0.80;;
29238;SDS011;16267;48.194;11.546;2024-02-16T11:18:38;1.60;;;0.93;;
29238;SDS011;16267;48.194;11.546;2024-02-16T11:21:55;1.60;;;0.98;;
29238;SDS011;16267;48.194;11.546;2024-02-16T11:28:11;1.83;;;0.70;;
29238;SDS011;16267;48.194;11.546;2024-02-16T11:30:44;3.33;;;1.15;;
29238;SDS011;16267;48.194;11.546;2024-02-16T11:33:12;4.95;;;0.70;;
29238;SDS011;16267;48.194;11.546;2024-02-16T11:35:39;2.03;;;0.90;;
29238;SDS011;16267;48.194;11.546;2024-02-16T11:38:05;2.03;;;0.95;;
29238;SDS011;16267;48.194;11.546;2024-02-16T11:40:41;2.28;;;0.77;;
29238;SDS011;16267;48.194;11.546;2024-02-16T11:43:30;4.10;;;0.82;;
29238;SDS011;16267;48.194;11.546;2024-02-16T11:45:59;1.55;;;1.00;;
29238;SDS011;16267;48.194;11.546;2024-02-16T11:48:38;1.80;;;0.98;;
29238;SDS011;16267;48.194;11.546;2024-02-16T11:51:04;3.50;;;0.93;;
29238;SDS011;16267;48.194;11.546;2024-02-16T11:53:30;1.63;;;0.85;;
29238;SDS011;16267;48.194;11.546;2024-02-16T11:55:57;2.17;;;1.17;;
29238;SDS011;16267;48.194;11.546;2024-02-16T11:58:54;2.65;;;0.77;;
29238;SDS011;16267;48.194;11.546;2024-02-16T12:01:26;1.30;;;1.00;;
29238;SDS011;16267;48.194;11.546;2024-02-16T12:03:59;2.17;;;1.20;;
29238;SDS011;16267;48.194;11.546;2024-02-16T12:06:25;1.55;;;0.77;;
29238;SDS011;16267;48.194;11.546;2024-02-16T12:09:08;2.30;;;0.88;;
29238;SDS011;16267;48.194;11.546;2024-02-16T12:11:35;1.23;;;0.70;;
29238;SDS011;16267;48.194;11.546;2024-02-16T12:14:06;2.42;;;1.08;;
29238;SDS011;16267;48.194;11.546;2024-02-16T12:16:51;3.05;;;0.80;;
29238;SDS011;16267;48.194;11.546;2024-02-16T12:22:19;1.58;;;0.68;;
29238;SDS011;16267;48.194;11.546;2024-02-16T12:24:46;1.30;;;0.73;;
29238;SDS011;16267;48.194;11.546;2024-02-16T12:27:16;2.47;;;0.68;;
29238;SDS011;16267;48.194;11.546;2024-02-16T12:29:48;1.75;;;0.60;;
29238;SDS011;16267;48.194;11.546;2024-02-16T12:32:14;3.75;;;0.85;;
29238;SDS011;16267;48.194;11.546;2024-02-16T12:34:43;3.17;;;0.90;;
29238;SDS011;16267;48.194;11.546;2024-02-16T12:37:09;4.07;;;0.82;;
29238;SDS011;16267;48.194;11.546;2024-02-16T12:39:36;2.95;;;0.88;;
29238;SDS011;16267;48.194;11.546;2024-02-16T12:42:03;3.83;;;1.30;;
29238;SDS011;16267;48.194;11.546;2024-02-16T12:44:32;2.90;;;0.70;;
29238;SDS011;16267;48.194;11.546;2024-02-16T12:46:58;2.63;;;0.98;;
29238;SDS011;16267;48.194;11.546;2024-02-16T12:49:24;1.65;;;1.05;;
29238;SDS011;16267;48.194;11.546;2024-02-16T12:51:54;5.55;;;0.98;;
29238;SDS011;16267;48.194;11.546;2024-02-16T12:54:19;2.83;;;0.85;;
29238;SDS011;16267;48.194;11.546;2024-02-16T12:56:48;1.60;;;0.77;;
29238;SDS011;16267;48.194;11.546;2024-02-16T12:59:18;1.70;;;0.85;;
29238;SDS011;16267;48.194;11.546;2024-02-16T13:01:44;2.55;;;1.23;;
29238;SDS011;16267;48.194;11.546;2024-02-16T13:13:58;2.03;;;0.93;;
29238;SDS011;16267;48.194;11.546;2024-02-16T13:16:39;1.20;;;0.70;;
29238;SDS011;16267;48.194;11.546;2024-02-16T13:19:07;1.33;;;0.80;;
29238;SDS011;16267;48.194;11.546;2024-02-16T13:22:14;1.20;;;0.77;;
29238;SDS011;16267;48.194;11.546;2024-02-16T13:35:42;1.17;;;0.70;;
29238;SDS011;16267;48.194;11.546;2024-02-16T13:38:39;1.95;;;0.90;;
29238;SDS011;16267;48.194;11.546;2024-02-16T13:44:07;4.07;;;1.15;;
29238;SDS011;16267;48.194;11.546;2024-02-16T13:46:46;1.97;;;1.13;;
29238;SDS011;16267;48.194;11.546;2024-02-16T13:49:24;1.55;;;1.10;;
29238;SDS011;16267;48.194;11.546;2024-02-16T13:58:53;1.17;;;0.73;;
29238;SDS011;16267;48.194;11.546;2024-02-16T14:01:18;2.40;;;1.08;;
29238;SDS011;16267;48.194;11.546;2024-02-16T14:03:44;3.95;;;1.20;;
29238;SDS011;16267;48.194;11.546;2024-02-16T14:06:10;2.92;;;1.23;;
29238;SDS011;16267;48.194;11.546;2024-02-16T14:08:38;2.58;;;1.00;;
29238;SDS011;16267;48.194;11.546;2024-02-16T14:24:57;2.50;;;1.30;;
29238;SDS011;16267;48.194;11.546;2024-02-16T14:32:13;4.10;;;1.23;;
29238;SDS011;16267;48.194;11.546;2024-02-16T14:36:13;6.03;;;1.38;;
29238;SDS011;16267;48.194;11.546;2024-02-16T14:39:16;2.55;;;1.45;;
29238;SDS011;16267;48.194;11.546;2024-02-16T14:46:04;7.82;;;1.05;;
29238;SDS011;16267;48.194;11.546;2024-02-16T14:48:45;1.95;;;1.08;;
29238;SDS011;16267;48.194;11.546;2024-02-16T14:54:24;6.68;;;1.38;;
29238;SDS011;16267;48.194;11.546;2024-02-16T15:30:54;11.00;;;0.90;;
29238;SDS011;16267;48.194;11.546;2024-02-16T15:33:23;1.48;;;0.73;;
29238;SDS011;16267;48.194;11.546;2024-02-16T15:35:49;2.05;;;0.70;;
29238;SDS011;16267;48.194;11.546;2024-02-16T15:38:15;3.35;;;1.35;;
29238;SDS011;16267;48.194;11.546;2024-02-16T15:40:40;5.18;;;0.98;;
29238;SDS011;16267;48.194;11.546;2024-02-16T15:47:10;6.45;;;0.90;;
29238;SDS011;16267;48.194;11.546;2024-02-16T15:49:41;1.63;;;1.08;;
29238;SDS011;16267;48.194;11.546;2024-02-16T15:52:09;1.15;;;0.70;;
29238;SDS011;16267;48.194;11.546;2024-02-16T15:54:47;1.50;;;1.00;;
29238;SDS011;16267;48.194;11.546;2024-02-16T15:57:24;3.35;;;1.00;;
29238;SDS011;16267;48.194;11.546;2024-02-16T16:00:16;3.58;;;0.95;;
29238;SDS011;16267;48.194;11.546;2024-02-16T16:02:42;4.88;;;1.10;;
29238;SDS011;16267;48.194;11.546;2024-02-16T16:05:22;3.28;;;0.98;;
29238;SDS011;16267;48.194;11.546;2024-02-16T16:07:57;5.53;;;1.33;;
29238;SDS011;16267;48.194;11.546;2024-02-16T16:10:37;6.65;;;0.93;;
29238;SDS011;16267;48.194;11.546;2024-02-16T16:13:02;2.53;;;1.13;;
29238;SDS011;16267;48.194;11.546;2024-02-16T16:15:33;1.63;;;1.10;;
29238;SDS011;16267;48.194;11.546;2024-02-16T16:18:03;5.45;;;1.95;;
29238;SDS011;16267;48.194;11.546;2024-02-16T16:20:42;5.32;;;1.27;;
29238;SDS011;16267;48.194;11.546;2024-02-16T16:23:10;3.58;;;1.20;;
29238;SDS011;16267;48.194;11.546;2024-02-16T16:25:43;3.28;;;1.17;;
29238;SDS011;16267;48.194;11.546;2024-02-16T16:28:14;4.22;;;1.20;;
29238;SDS011;16267;48.194;11.546;2024-02-16T16:30:45;2.22;;;1.10;;
29238;SDS011;16267;48.194;11.546;2024-02-16T16:33:17;12.07;;;1.15;;
29238;SDS011;16267;48.194;11.546;2024-02-16T16:35:43;2.53;;;1.15;;
29238;SDS011;16267;48.194;11.546;2024-02-16T16:38:12;2.78;;;1.92;;
29238;SDS011;16267;48.194;11.546;2024-02-16T16:40:43;4.38;;;2.03;;
29238;SDS011;16267;48.194;11.546;2024-02-16T16:43:09;5.75;;;1.50;;
29238;SDS011;16267;48.194;11.546;2024-02-16T16:45:44;4.28;;;1.85;;
29238;SDS011;16267;48.194;11.546;2024-02-16T16:48:10;5.15;;;1.55;;
29238;SDS011;16267;48.194;11.546;2024-02-16T16:50:39;6.72;;;1.60;;
29238;SDS011;16267;48.194;11.546;2024-02-16T16:53:10;4.43;;;1.92;;
29238;SDS011;16267;48.194;11.546;2024-02-16T16:55:48;4.18;;;1.77;;